sensor_id;sensor_type;location;lat;lon;timestamp;pressure;altitude;pressure_sealevel;temperature;humidity
60019;BME280;45870;42.528;26.740;2023-08-24T00:00:10;99634.84;;;29.08;39.79
60019;BME280;45870;42.528;26.740;2023-08-24T00:02:36;99624.78;;;29.03;39.90
60019;BME280;45870;42.528;26.740;2023-08-24T00:05:03;99575.06;;;28.83;39.87
60019;BME280;45870;42.528;26.740;2023-08-24T00:07:29;99639.84;;;28.87;40.26
60019;BME280;45870;42.528;26.740;2023-08-24T00:09:55;99639.31;;;28.81;40.62
60019;BME280;45870;42.528;26.740;2023-08-24T00:12:20;99640.41;;;28.92;40.12
60019;BME280;45870;42.528;26.740;2023-08-24T00:14:46;99625.69;;;29.07;39.97
60019;BME280;45870;42.528;26.740;2023-08-24T00:17:12;99639.25;;;29.09;39.93
60019;BME280;45870;42.528;26.740;2023-08-24T00:19:37;99641.94;;;29.05;39.94
60019;BME280;45870;42.528;26.740;2023-08-24T00:22:03;99580.72;;;28.70;40.14
60019;BME280;45870;42.528;26.740;2023-08-24T00:24:29;99564.25;;;28.65;39.57
60019;BME280;45870;42.528;26.740;2023-08-24T00:26:55;99598.19;;;28.71;39.97
60019;BME280;45870;42.528;26.740;2023-08-24T00:29:20;99646.28;;;28.75;39.74
60019;BME280;45870;42.528;26.740;2023-08-24T00:31:47;99652.47;;;26.71;45.00
60019;BME280;45870;42.528;26.740;2023-08-24T00:34:13;99639.00;;;25.37;48.72
60019;BME280;45870;42.528;26.740;2023-08-24T00:36:38;99648.16;;;26.61;45.49
60019;BME280;45870;42.528;26.740;2023-08-24T00:39:04;99651.63;;;26.91;45.30
60019;BME280;45870;42.528;26.740;2023-08-24T00:41:30;99638.66;;;28.04;42.43
60019;BME280;45870;42.528;26.740;2023-08-24T00:43:55;99644.06;;;28.81;40.55
60019;BME280;45870;42.528;26.740;2023-08-24T00:46:21;99635.91;;;28.88;40.18
60019;BME280;45870;42.528;26.740;2023-08-24T00:48:48;99626.16;;;28.78;40.17
60019;BME280;45870;42.528;26.740;2023-08-24T00:51:14;99615.13;;;28.54;40.74
60019;BME280;45870;42.528;26.740;2023-08-24T00:53:40;99617.69;;;28.31;41.43
60019;BME280;45870;42.528;26.740;2023-08-24T00:56:06;99621.34;;;28.07;41.33
60019;BME280;45870;42.528;26.740;2023-08-24T00:58:32;99627.06;;;27.74;42.49
60019;BME280;45870;42.528;26.740;2023-08-24T01:00:58;99623.63;;;28.17;41.03
60019;BME280;45870;42.528;26.740;2023-08-24T01:03:24;99612.78;;;28.00;41.05
60019;BME280;45870;42.528;26.740;2023-08-24T01:05:51;99619.44;;;28.23;40.87
60019;BME280;45870;42.528;26.740;2023-08-24T01:08:17;99473.22;;;27.56;40.03
60019;BME280;45870;42.528;26.740;2023-08-24T01:10:48;99607.50;;;28.07;40.52
60019;BME280;45870;42.528;26.740;2023-08-24T01:13:31;99611.34;;;27.78;40.45
60019;BME280;45870;42.528;26.740;2023-08-24T01:16:14;99605.22;;;27.73;40.98
60019;BME280;45870;42.528;26.740;2023-08-24T01:18:42;99602.13;;;27.38;42.79
60019;BME280;45870;42.528;26.740;2023-08-24T01:21:09;99598.44;;;27.58;42.48
60019;BME280;45870;42.528;26.740;2023-08-24T01:26:29;99569.22;;;27.61;42.55
60019;BME280;45870;42.528;26.740;2023-08-24T01:28:55;99593.72;;;28.11;41.48
60019;BME280;45870;42.528;26.740;2023-08-24T01:31:21;99586.66;;;28.29;41.21
60019;BME280;45870;42.528;26.740;2023-08-24T01:33:47;99595.38;;;28.27;41.33
60019;BME280;45870;42.528;26.740;2023-08-24T01:36:15;99590.31;;;28.45;40.74
60019;BME280;45870;42.528;26.740;2023-08-24T01:38:48;99584.50;;;28.22;41.37
60019;BME280;45870;42.528;26.740;2023-08-24T01:41:23;99587.28;;;28.22;41.12
60019;BME280;45870;42.528;26.740;2023-08-24T01:43:53;99596.09;;;26.43;45.60
60019;BME280;45870;42.528;26.740;2023-08-24T01:46:21;99581.38;;;28.24;41.41
60019;BME280;45870;42.528;26.740;2023-08-24T01:48:47;99581.22;;;28.33;41.15
60019;BME280;45870;42.528;26.740;2023-08-24T01:51:15;99580.16;;;28.37;40.83
60019;BME280;45870;42.528;26.740;2023-08-24T01:53:42;99585.03;;;27.72;42.81
60019;BME280;45870;42.528;26.740;2023-08-24T01:56:09;99576.13;;;27.67;42.47
60019;BME280;45870;42.528;26.740;2023-08-24T01:58:35;99569.06;;;28.09;41.65
60019;BME280;45870;42.528;26.740;2023-08-24T02:01:01;99562.38;;;28.10;41.48
60019;BME280;45870;42.528;26.740;2023-08-24T02:03:26;99567.53;;;28.40;41.08
60019;BME280;45870;42.528;26.740;2023-08-24T02:05:52;99561.41;;;28.18;41.22
60019;BME280;45870;42.528;26.740;2023-08-24T02:08:17;99562.47;;;27.74;42.08
60019;BME280;45870;42.528;26.740;2023-08-24T02:10:43;99523.00;;;27.65;42.12
60019;BME280;45870;42.528;26.740;2023-08-24T02:13:09;99557.66;;;27.99;41.63
60019;BME280;45870;42.528;26.740;2023-08-24T02:15:34;99559.38;;;28.03;41.65
60019;BME280;45870;42.528;26.740;2023-08-24T02:18:00;99551.44;;;27.90;41.87
60019;BME280;45870;42.528;26.740;2023-08-24T02:20:26;99561.59;;;27.58;42.43
60019;BME280;45870;42.528;26.740;2023-08-24T02:22:51;99560.69;;;27.29;42.51
60019;BME280;45870;42.528;26.740;2023-08-24T02:25:17;99559.53;;;27.18;42.96
60019;BME280;45870;42.528;26.740;2023-08-24T02:27:43;99557.97;;;27.97;40.99
60019;BME280;45870;42.528;26.740;2023-08-24T02:30:09;99563.22;;;28.26;40.07
60019;BME280;45870;42.528;26.740;2023-08-24T02:32:35;99558.19;;;28.16;40.38
60019;BME280;45870;42.528;26.740;2023-08-24T02:35:00;99563.34;;;27.90;40.78
60019;BME280;45870;42.528;26.740;2023-08-24T02:37:26;99518.78;;;27.83;40.50
60019;BME280;45870;42.528;26.740;2023-08-24T02:39:52;99565.88;;;27.95;40.96
60019;BME280;45870;42.528;26.740;2023-08-24T02:42:18;99570.34;;;26.09;45.41
60019;BME280;45870;42.528;26.740;2023-08-24T02:44:43;99579.59;;;27.27;42.64
60019;BME280;45870;42.528;26.740;2023-08-24T02:47:09;99590.25;;;27.62;41.60
60019;BME280;45870;42.528;26.740;2023-08-24T02:49:34;99589.66;;;27.68;41.81
60019;BME280;45870;42.528;26.740;2023-08-24T02:52:00;99591.03;;;27.62;41.67
60019;BME280;45870;42.528;26.740;2023-08-24T02:54:26;99585.84;;;27.24;42.82
60019;BME280;45870;42.528;26.740;2023-08-24T02:56:51;99586.53;;;27.09;42.88
60019;BME280;45870;42.528;26.740;2023-08-24T02:59:18;99598.53;;;27.13;42.64
60019;BME280;45870;42.528;26.740;2023-08-24T03:01:44;99434.09;;;26.45;41.59
60019;BME280;45870;42.528;26.740;2023-08-24T03:04:09;99583.44;;;26.54;44.03
60019;BME280;45870;42.528;26.740;2023-08-24T03:06:35;99533.31;;;26.22;44.45
60019;BME280;45870;42.528;26.740;2023-08-24T03:09:02;99490.13;;;26.54;42.76
60019;BME280;45870;42.528;26.740;2023-08-24T03:11:29;99565.97;;;27.35;41.94
60019;BME280;45870;42.528;26.740;2023-08-24T03:13:55;99579.88;;;27.47;41.93
60019;BME280;45870;42.528;26.740;2023-08-24T03:16:20;99575.81;;;27.44;41.73
60019;BME280;45870;42.528;26.740;2023-08-24T03:18:46;99568.19;;;27.05;42.45
60019;BME280;45870;42.528;26.740;2023-08-24T03:21:12;99564.00;;;27.35;41.61
60019;BME280;45870;42.528;26.740;2023-08-24T03:23:37;99523.06;;;27.04;41.67
60019;BME280;45870;42.528;26.740;2023-08-24T03:26:03;99537.47;;;27.10;42.41
60019;BME280;45870;42.528;26.740;2023-08-24T03:28:28;99496.03;;;26.65;43.10
60019;BME280;45870;42.528;26.740;2023-08-24T03:30:54;99557.69;;;27.47;42.01
60019;BME280;45870;42.528;26.740;2023-08-24T03:33:21;99563.22;;;27.47;42.01
60019;BME280;45870;42.528;26.740;2023-08-24T03:35:47;99562.25;;;27.67;41.40
60019;BME280;45870;42.528;26.740;2023-08-24T03:38:13;99557.22;;;27.45;41.74
60019;BME280;45870;42.528;26.740;2023-08-24T03:40:39;99556.06;;;27.34;42.08
60019;BME280;45870;42.528;26.740;2023-08-24T03:43:05;99557.31;;;27.60;41.85
60019;BME280;45870;42.528;26.740;2023-08-24T03:45:30;99550.03;;;27.96;41.59
60019;BME280;45870;42.528;26.740;2023-08-24T03:47:56;99538.66;;;28.13;41.24
60019;BME280;45870;42.528;26.740;2023-08-24T03:50:22;99510.47;;;27.99;40.83
60019;BME280;45870;42.528;26.740;2023-08-24T03:52:49;99567.97;;;29.32;39.03
60019;BME280;45870;42.528;26.740;2023-08-24T03:55:15;99559.03;;;30.35;37.02
60019;BME280;45870;42.528;26.740;2023-08-24T03:57:41;99578.31;;;31.08;36.56
60019;BME280;45870;42.528;26.740;2023-08-24T04:00:08;99587.16;;;29.72;36.88
60019;BME280;45870;42.528;26.740;2023-08-24T04:02:38;99569.53;;;29.49;38.32
60019;BME280;45870;42.528;26.740;2023-08-24T04:05:04;99587.56;;;29.55;37.87
60019;BME280;45870;42.528;26.740;2023-08-24T04:07:30;99550.97;;;28.71;39.93
60019;BME280;45870;42.528;26.740;2023-08-24T04:09:56;99567.28;;;30.92;35.67
60019;BME280;45870;42.528;26.740;2023-08-24T04:12:22;99591.94;;;31.92;33.73
60019;BME280;45870;42.528;26.740;2023-08-24T04:14:47;99589.78;;;30.00;37.37
60019;BME280;45870;42.528;26.740;2023-08-24T04:17:14;99592.75;;;29.91;37.06
60019;BME280;45870;42.528;26.740;2023-08-24T04:19:39;99596.56;;;32.07;33.64
60019;BME280;45870;42.528;26.740;2023-08-24T04:22:05;99567.31;;;32.64;32.32
60019;BME280;45870;42.528;26.740;2023-08-24T04:24:31;99592.41;;;33.04;32.17
60019;BME280;45870;42.528;26.740;2023-08-24T04:26:56;99578.19;;;35.60;28.69
60019;BME280;45870;42.528;26.740;2023-08-24T04:29:22;99611.03;;;34.89;28.67
60019;BME280;45870;42.528;26.740;2023-08-24T04:31:47;99610.22;;;35.59;28.74
60019;BME280;45870;42.528;26.740;2023-08-24T04:34:13;99610.50;;;36.18;27.43
60019;BME280;45870;42.528;26.740;2023-08-24T04:36:39;99550.81;;;36.69;26.20
60019;BME280;45870;42.528;26.740;2023-08-24T04:39:04;99610.75;;;38.33;24.63
60019;BME280;45870;42.528;26.740;2023-08-24T04:41:30;99572.16;;;38.26;24.36
60019;BME280;45870;42.528;26.740;2023-08-24T04:43:55;99567.78;;;39.06;23.68
60019;BME280;45870;42.528;26.740;2023-08-24T04:46:21;99601.25;;;39.97;23.23
60019;BME280;45870;42.528;26.740;2023-08-24T04:48:47;99610.41;;;40.24;22.59
60019;BME280;45870;42.528;26.740;2023-08-24T04:51:13;99558.91;;;39.73;22.47
60019;BME280;45870;42.528;26.740;2023-08-24T04:53:39;99572.59;;;40.34;22.15
60019;BME280;45870;42.528;26.740;2023-08-24T04:56:05;99622.97;;;40.95;21.75
60019;BME280;45870;42.528;26.740;2023-08-24T04:58:33;99619.88;;;41.54;21.02
60019;BME280;45870;42.528;26.740;2023-08-24T05:00:59;99593.38;;;41.60;20.18
60019;BME280;45870;42.528;26.740;2023-08-24T05:03:25;99619.06;;;42.27;19.93
60019;BME280;45870;42.528;26.740;2023-08-24T05:05:50;99614.34;;;41.79;20.18
60019;BME280;45870;42.528;26.740;2023-08-24T05:08:16;99620.03;;;41.63;20.25
60019;BME280;45870;42.528;26.740;2023-08-24T05:10:42;99603.38;;;40.32;21.38
60019;BME280;45870;42.528;26.740;2023-08-24T05:13:07;99620.53;;;38.25;24.33
60019;BME280;45870;42.528;26.740;2023-08-24T05:15:33;99624.53;;;40.04;22.78
60019;BME280;45870;42.528;26.740;2023-08-24T05:17:58;99630.91;;;42.09;20.38
60019;BME280;45870;42.528;26.740;2023-08-24T05:20:26;99585.84;;;43.41;19.05
60019;BME280;45870;42.528;26.740;2023-08-24T05:22:52;99593.72;;;43.24;18.89
60019;BME280;45870;42.528;26.740;2023-08-24T05:25:20;99614.25;;;42.53;19.78
60019;BME280;45870;42.528;26.740;2023-08-24T05:27:46;99588.47;;;43.70;18.63
60019;BME280;45870;42.528;26.740;2023-08-24T05:30:12;99620.28;;;44.64;17.61
60019;BME280;45870;42.528;26.740;2023-08-24T05:32:38;99621.06;;;45.63;16.88
60019;BME280;45870;42.528;26.740;2023-08-24T05:35:08;99571.00;;;44.86;17.46
60019;BME280;45870;42.528;26.740;2023-08-24T05:37:34;99623.94;;;44.65;17.61
60019;BME280;45870;42.528;26.740;2023-08-24T05:40:01;99637.91;;;46.15;16.17
60019;BME280;45870;42.528;26.740;2023-08-24T05:42:27;99630.56;;;44.40;17.76
60019;BME280;45870;42.528;26.740;2023-08-24T05:44:53;99618.53;;;42.32;19.52
60019;BME280;45870;42.528;26.740;2023-08-24T05:47:18;99622.91;;;43.12;18.59
60019;BME280;45870;42.528;26.740;2023-08-24T05:49:44;99623.09;;;40.71;20.75
60019;BME280;45870;42.528;26.740;2023-08-24T05:52:10;99625.16;;;41.84;20.56
60019;BME280;45870;42.528;26.740;2023-08-24T05:54:37;99625.13;;;41.23;20.68
60019;BME280;45870;42.528;26.740;2023-08-24T05:57:03;99616.69;;;42.92;19.55
60019;BME280;45870;42.528;26.740;2023-08-24T05:59:30;99626.00;;;41.52;20.92
60019;BME280;45870;42.528;26.740;2023-08-24T06:01:55;99631.59;;;39.50;23.64
60019;BME280;45870;42.528;26.740;2023-08-24T06:04:21;99624.78;;;39.20;23.46
60019;BME280;45870;42.528;26.740;2023-08-24T06:06:48;99630.75;;;40.55;21.90
60019;BME280;45870;42.528;26.740;2023-08-24T06:09:14;99607.81;;;40.49;21.36
60019;BME280;45870;42.528;26.740;2023-08-24T06:11:42;99642.50;;;41.41;21.32
60019;BME280;45870;42.528;26.740;2023-08-24T06:14:08;99634.78;;;40.18;21.98
60019;BME280;45870;42.528;26.740;2023-08-24T06:16:34;99646.28;;;41.34;21.16
60019;BME280;45870;42.528;26.740;2023-08-24T06:18:59;99646.13;;;38.41;24.14
60019;BME280;45870;42.528;26.740;2023-08-24T06:21:26;99651.97;;;39.37;23.48
60019;BME280;45870;42.528;26.740;2023-08-24T06:23:52;99655.63;;;40.43;22.36
60019;BME280;45870;42.528;26.740;2023-08-24T06:26:18;99530.47;;;42.73;18.86
60019;BME280;45870;42.528;26.740;2023-08-24T06:28:43;99657.66;;;43.54;18.74
60019;BME280;45870;42.528;26.740;2023-08-24T06:31:09;99659.44;;;43.61;19.15
60019;BME280;45870;42.528;26.740;2023-08-24T06:33:35;99645.88;;;42.93;19.49
60019;BME280;45870;42.528;26.740;2023-08-24T06:36:02;99657.91;;;40.88;21.40
60019;BME280;45870;42.528;26.740;2023-08-24T06:38:30;99640.22;;;41.81;20.15
60019;BME280;45870;42.528;26.740;2023-08-24T06:40:57;99662.19;;;43.39;18.79
60019;BME280;45870;42.528;26.740;2023-08-24T06:43:23;99664.63;;;43.41;19.57
60019;BME280;45870;42.528;26.740;2023-08-24T06:45:54;99666.53;;;39.82;22.95
60019;BME280;45870;42.528;26.740;2023-08-24T06:48:21;99638.91;;;38.36;25.25
60019;BME280;45870;42.528;26.740;2023-08-24T06:50:48;99662.47;;;39.60;22.96
60019;BME280;45870;42.528;26.740;2023-08-24T06:53:13;99668.59;;;41.49;22.10
60019;BME280;45870;42.528;26.740;2023-08-24T06:55:42;99641.00;;;40.84;21.94
60019;BME280;45870;42.528;26.740;2023-08-24T06:58:07;99670.38;;;40.55;22.31
60019;BME280;45870;42.528;26.740;2023-08-24T07:00:33;99665.81;;;37.18;26.35
60019;BME280;45870;42.528;26.740;2023-08-24T07:02:59;99667.31;;;36.68;26.78
60019;BME280;45870;42.528;26.740;2023-08-24T07:05:25;99669.81;;;40.79;21.42
60019;BME280;45870;42.528;26.740;2023-08-24T07:07:51;99620.63;;;42.69;18.93
60019;BME280;45870;42.528;26.740;2023-08-24T07:10:17;99676.75;;;41.47;20.52
60019;BME280;45870;42.528;26.740;2023-08-24T07:12:44;99672.13;;;40.06;22.82
60019;BME280;45870;42.528;26.740;2023-08-24T07:15:13;99619.03;;;37.76;25.46
60019;BME280;45870;42.528;26.740;2023-08-24T07:17:40;99676.16;;;37.35;25.77
60019;BME280;45870;42.528;26.740;2023-08-24T07:20:06;99665.81;;;37.70;25.06
60019;BME280;45870;42.528;26.740;2023-08-24T07:22:33;99673.53;;;41.28;21.60
60019;BME280;45870;42.528;26.740;2023-08-24T07:25:00;99664.44;;;39.63;23.24
60019;BME280;45870;42.528;26.740;2023-08-24T07:27:25;99661.09;;;42.16;21.05
60019;BME280;45870;42.528;26.740;2023-08-24T07:29:51;99665.88;;;39.25;24.58
60019;BME280;45870;42.528;26.740;2023-08-24T07:32:17;99669.78;;;40.63;22.20
60019;BME280;45870;42.528;26.740;2023-08-24T07:34:42;99662.25;;;41.45;21.73
60019;BME280;45870;42.528;26.740;2023-08-24T07:37:08;99661.00;;;44.52;18.22
60019;BME280;45870;42.528;26.740;2023-08-24T07:39:34;99644.66;;;42.11;20.31
60019;BME280;45870;42.528;26.740;2023-08-24T07:41:59;99662.09;;;40.44;22.68
60019;BME280;45870;42.528;26.740;2023-08-24T07:44:25;99650.13;;;42.47;20.00
60019;BME280;45870;42.528;26.740;2023-08-24T07:46:50;99661.06;;;45.32;16.87
60019;BME280;45870;42.528;26.740;2023-08-24T07:49:16;99657.97;;;44.99;17.88
60019;BME280;45870;42.528;26.740;2023-08-24T07:51:42;99653.81;;;43.23;19.46
60019;BME280;45870;42.528;26.740;2023-08-24T07:54:09;99652.72;;;44.45;17.40
60019;BME280;45870;42.528;26.740;2023-08-24T07:56:38;99644.41;;;44.82;18.00
60019;BME280;45870;42.528;26.740;2023-08-24T07:59:04;99648.75;;;44.43;18.02
60019;BME280;45870;42.528;26.740;2023-08-24T08:01:29;99644.81;;;45.42;16.59
60019;BME280;45870;42.528;26.740;2023-08-24T08:03:55;99654.19;;;46.33;15.59
60019;BME280;45870;42.528;26.740;2023-08-24T08:06:21;99650.53;;;44.49;17.18
60019;BME280;45870;42.528;26.740;2023-08-24T08:08:50;99644.31;;;44.63;17.31
60019;BME280;45870;42.528;26.740;2023-08-24T08:11:17;99639.69;;;47.06;15.33
60019;BME280;45870;42.528;26.740;2023-08-24T08:13:43;99597.78;;;47.36;16.39
60019;BME280;45870;42.528;26.740;2023-08-24T08:16:09;99632.03;;;47.12;15.43
60019;BME280;45870;42.528;26.740;2023-08-24T08:18:36;99629.94;;;46.47;16.00
60019;BME280;45870;42.528;26.740;2023-08-24T08:21:09;99632.91;;;44.94;17.39
60019;BME280;45870;42.528;26.740;2023-08-24T08:23:35;99628.34;;;42.69;19.79
60019;BME280;45870;42.528;26.740;2023-08-24T08:26:01;99630.59;;;45.96;15.80
60019;BME280;45870;42.528;26.740;2023-08-24T08:28:26;99618.38;;;49.04;14.33
60019;BME280;45870;42.528;26.740;2023-08-24T08:30:52;99620.97;;;47.61;15.33
60019;BME280;45870;42.528;26.740;2023-08-24T08:33:17;99569.53;;;49.34;13.75
60019;BME280;45870;42.528;26.740;2023-08-24T08:35:44;99594.97;;;44.66;17.26
60019;BME280;45870;42.528;26.740;2023-08-24T08:38:10;99605.84;;;42.49;19.41
60019;BME280;45870;42.528;26.740;2023-08-24T08:40:39;99604.50;;;44.20;17.66
60019;BME280;45870;42.528;26.740;2023-08-24T08:43:06;99608.72;;;43.00;18.59
60019;BME280;45870;42.528;26.740;2023-08-24T08:45:32;99599.38;;;46.20;16.60
60019;BME280;45870;42.528;26.740;2023-08-24T08:47:59;99583.44;;;46.46;15.50
60019;BME280;45870;42.528;26.740;2023-08-24T08:50:26;99565.41;;;43.90;16.66
60019;BME280;45870;42.528;26.740;2023-08-24T08:52:52;99593.81;;;45.89;16.58
60019;BME280;45870;42.528;26.740;2023-08-24T08:55:19;99582.13;;;42.94;17.89
60019;BME280;45870;42.528;26.740;2023-08-24T08:57:49;99587.50;;;45.76;16.00
60019;BME280;45870;42.528;26.740;2023-08-24T09:00:16;99578.84;;;44.63;16.23
60019;BME280;45870;42.528;26.740;2023-08-24T09:02:44;99563.59;;;43.61;17.14
60019;BME280;45870;42.528;26.740;2023-08-24T09:05:11;99584.69;;;43.73;17.45
60019;BME280;45870;42.528;26.740;2023-08-24T09:07:39;99550.59;;;40.77;19.58
60019;BME280;45870;42.528;26.740;2023-08-24T09:10:06;99564.66;;;42.16;18.04
60019;BME280;45870;42.528;26.740;2023-08-24T09:12:33;99542.31;;;45.93;15.06
60019;BME280;45870;42.528;26.740;2023-08-24T09:14:59;99575.47;;;47.16;14.22
60019;BME280;45870;42.528;26.740;2023-08-24T09:17:25;99574.41;;;46.90;15.61
60019;BME280;45870;42.528;26.740;2023-08-24T09:19:57;99575.53;;;48.81;13.83
60019;BME280;45870;42.528;26.740;2023-08-24T09:22:23;99540.63;;;48.18;12.88
60019;BME280;45870;42.528;26.740;2023-08-24T09:24:49;99534.00;;;48.91;12.41
60019;BME280;45870;42.528;26.740;2023-08-24T09:27:17;99574.78;;;48.66;12.38
60019;BME280;45870;42.528;26.740;2023-08-24T09:29:48;99573.31;;;50.12;10.71
60019;BME280;45870;42.528;26.740;2023-08-24T09:32:15;99567.34;;;45.89;15.62
60019;BME280;45870;42.528;26.740;2023-08-24T09:34:41;99563.06;;;45.57;15.47
60019;BME280;45870;42.528;26.740;2023-08-24T09:37:14;99543.44;;;43.34;16.18
60019;BME280;45870;42.528;26.740;2023-08-24T09:39:44;99554.63;;;46.68;14.78
60019;BME280;45870;42.528;26.740;2023-08-24T09:42:11;99516.63;;;46.02;14.76
60019;BME280;45870;42.528;26.740;2023-08-24T09:44:36;99550.44;;;43.55;17.10
60019;BME280;45870;42.528;26.740;2023-08-24T09:47:08;99554.88;;;45.77;15.52
60019;BME280;45870;42.528;26.740;2023-08-24T09:49:34;99548.38;;;45.77;15.33
60019;BME280;45870;42.528;26.740;2023-08-24T09:51:59;99541.78;;;43.11;17.87
60019;BME280;45870;42.528;26.740;2023-08-24T09:54:26;99512.81;;;43.16;16.77
60019;BME280;45870;42.528;26.740;2023-08-24T09:56:55;99538.22;;;41.20;19.79
60019;BME280;45870;42.528;26.740;2023-08-24T09:59:22;99541.03;;;43.45;16.61
60019;BME280;45870;42.528;26.740;2023-08-24T10:01:51;99529.25;;;43.21;18.17
60019;BME280;45870;42.528;26.740;2023-08-24T10:04:22;99530.13;;;42.84;17.62
60019;BME280;45870;42.528;26.740;2023-08-24T10:06:49;99533.34;;;40.88;18.83
60019;BME280;45870;42.528;26.740;2023-08-24T10:09:23;99523.25;;;40.87;19.52
60019;BME280;45870;42.528;26.740;2023-08-24T10:11:55;99521.44;;;39.89;20.53
60019;BME280;45870;42.528;26.740;2023-08-24T10:14:26;99514.09;;;43.37;17.27
60019;BME280;45870;42.528;26.740;2023-08-24T10:16:55;99480.44;;;40.53;19.54
60019;BME280;45870;42.528;26.740;2023-08-24T10:19:22;99504.84;;;41.56;19.55
60019;BME280;45870;42.528;26.740;2023-08-24T10:21:49;99504.66;;;42.17;18.77
60019;BME280;45870;42.528;26.740;2023-08-24T10:24:16;99508.00;;;42.66;18.54
60019;BME280;45870;42.528;26.740;2023-08-24T10:26:43;99499.59;;;41.26;20.21
60019;BME280;45870;42.528;26.740;2023-08-24T10:29:10;99437.91;;;39.49;20.51
60019;BME280;45870;42.528;26.740;2023-08-24T10:31:36;99451.56;;;41.51;20.05
60019;BME280;45870;42.528;26.740;2023-08-24T10:34:05;99480.56;;;41.84;18.51
60019;BME280;45870;42.528;26.740;2023-08-24T10:36:31;99467.44;;;41.04;20.13
60019;BME280;45870;42.528;26.740;2023-08-24T10:39:04;99476.75;;;40.56;19.34
60019;BME280;45870;42.528;26.740;2023-08-24T10:41:48;99461.91;;;42.50;17.75
60019;BME280;45870;42.528;26.740;2023-08-24T10:44:25;99454.69;;;43.73;17.19
60019;BME280;45870;42.528;26.740;2023-08-24T10:49:59;99446.16;;;40.67;19.48
60019;BME280;45870;42.528;26.740;2023-08-24T10:54:57;99447.78;;;43.18;17.41
60019;BME280;45870;42.528;26.740;2023-08-24T10:57:27;99447.81;;;44.54;15.81
60019;BME280;45870;42.528;26.740;2023-08-24T11:00:06;99446.28;;;43.92;15.66
60019;BME280;45870;42.528;26.740;2023-08-24T11:02:49;99449.88;;;41.54;18.15
60019;BME280;45870;42.528;26.740;2023-08-24T11:05:17;99436.47;;;41.96;18.30
60019;BME280;45870;42.528;26.740;2023-08-24T11:07:53;99354.53;;;43.17;15.81
60019;BME280;45870;42.528;26.740;2023-08-24T11:10:20;99433.41;;;43.13;18.16
60019;BME280;45870;42.528;26.740;2023-08-24T11:20:42;99425.00;;;42.97;17.28
60019;BME280;45870;42.528;26.740;2023-08-24T11:23:07;99427.63;;;42.44;17.72
60019;BME280;45870;42.528;26.740;2023-08-24T11:25:37;99412.00;;;42.87;17.38
60019;BME280;45870;42.528;26.740;2023-08-24T11:28:06;99409.78;;;43.90;17.04
60019;BME280;45870;42.528;26.740;2023-08-24T11:30:32;99408.94;;;45.60;17.46
60019;BME280;45870;42.528;26.740;2023-08-24T11:32:59;99406.16;;;43.99;16.51
60019;BME280;45870;42.528;26.740;2023-08-24T11:35:25;99392.25;;;42.23;17.30
60019;BME280;45870;42.528;26.740;2023-08-24T11:37:52;99386.31;;;40.97;19.44
60019;BME280;45870;42.528;26.740;2023-08-24T11:40:18;99386.53;;;42.96;17.68
60019;BME280;45870;42.528;26.740;2023-08-24T11:42:45;99392.81;;;44.17;16.45
60019;BME280;45870;42.528;26.740;2023-08-24T11:45:12;99383.53;;;43.86;16.72
60019;BME280;45870;42.528;26.740;2023-08-24T11:47:38;99371.34;;;43.11;17.92
60019;BME280;45870;42.528;26.740;2023-08-24T11:50:04;99331.09;;;42.22;18.78
60019;BME280;45870;42.528;26.740;2023-08-24T11:52:30;99359.38;;;43.38;17.12
60019;BME280;45870;42.528;26.740;2023-08-24T11:55:00;99365.88;;;40.89;19.38
60019;BME280;45870;42.528;26.740;2023-08-24T11:57:27;99362.53;;;41.36;19.48
60019;BME280;45870;42.528;26.740;2023-08-24T11:59:54;99353.69;;;42.26;17.86
60019;BME280;45870;42.528;26.740;2023-08-24T12:02:21;99312.31;;;41.91;18.42
60019;BME280;45870;42.528;26.740;2023-08-24T12:04:48;99344.97;;;43.33;18.17
60019;BME280;45870;42.528;26.740;2023-08-24T12:07:14;99332.63;;;42.49;19.58
60019;BME280;45870;42.528;26.740;2023-08-24T12:09:41;99331.66;;;42.17;18.38
60019;BME280;45870;42.528;26.740;2023-08-24T12:12:16;99289.06;;;42.43;18.81
60019;BME280;45870;42.528;26.740;2023-08-24T12:14:44;99331.88;;;41.47;19.57
60019;BME280;45870;42.528;26.740;2023-08-24T12:17:10;99332.88;;;44.03;17.82
60019;BME280;45870;42.528;26.740;2023-08-24T12:19:36;99344.97;;;43.54;18.75
60019;BME280;45870;42.528;26.740;2023-08-24T12:22:03;99330.16;;;42.72;19.76
60019;BME280;45870;42.528;26.740;2023-08-24T12:24:28;99337.38;;;41.79;20.31
60019;BME280;45870;42.528;26.740;2023-08-24T12:26:57;99330.63;;;41.73;20.85
60019;BME280;45870;42.528;26.740;2023-08-24T12:29:25;99331.47;;;41.32;20.60
60019;BME280;45870;42.528;26.740;2023-08-24T12:31:50;99311.84;;;41.79;20.85
60019;BME280;45870;42.528;26.740;2023-08-24T12:34:16;99322.53;;;39.47;22.99
60019;BME280;45870;42.528;26.740;2023-08-24T12:36:42;99258.69;;;39.85;22.28
60019;BME280;45870;42.528;26.740;2023-08-24T12:39:11;99309.38;;;40.09;22.53
60019;BME280;45870;42.528;26.740;2023-08-24T12:41:38;99314.84;;;39.83;22.07
60019;BME280;45870;42.528;26.740;2023-08-24T12:44:04;99310.44;;;39.99;22.31
60019;BME280;45870;42.528;26.740;2023-08-24T12:46:37;99314.25;;;40.24;21.88
60019;BME280;45870;42.528;26.740;2023-08-24T12:49:03;99322.22;;;39.61;22.59
60019;BME280;45870;42.528;26.740;2023-08-24T12:51:29;99263.66;;;38.70;23.71
60019;BME280;45870;42.528;26.740;2023-08-24T12:53:55;99300.69;;;38.92;23.52
60019;BME280;45870;42.528;26.740;2023-08-24T12:56:20;99304.81;;;37.71;24.80
60019;BME280;45870;42.528;26.740;2023-08-24T12:58:46;99304.03;;;38.21;24.19
60019;BME280;45870;42.528;26.740;2023-08-24T13:01:12;99304.06;;;37.67;25.37
60019;BME280;45870;42.528;26.740;2023-08-24T13:03:37;99283.75;;;37.79;24.99